In Rescue
 
Open Full Screen Window  High Contrast Mode
Wind Gusting 14 knots
08
April 20, 2024 8:42 AM EDT
Weather Information
Wind Direction
  360 °
Wind Speed
  08 kt (9 mph)
Wind Gust
  14 kt (16 mph)
Altimeter
29.92 in
Visibility
10 SM
Temperature
08° C
46° F
Dewpoint
00° C
32° F
Humidity
57%
Sky Condition
Overcast @ 2,500 ft
Scattered @ 1,800 ft
Scattered @ 1,200 ft
MVFR

METAR K6B0 201242Z AUTO 36008G14KT 10SM SCT012 SCT018 OVC025 08/00 A2992 RMK AO2 T00790000

FAA Disclaimer: The data displayed is for advisory purposes only and is not to be used for flight planning or operations.